Time;durP1;ratioP1;P1;durP2;ratioP2;P2;SDS_P1;SDS_P2;PMS_P1;PMS_P2;Temp;Humidity;BMP_temperature;BMP_pressure;BME280_temperature;BME280_humidity;BME280_pressure;Samples;Min_cycle;Max_cycle;Signal;HPM_P1;HPM_P2
2021/04/24 00:00:12;;;;;;;13.35;5.22;;;;;;;11.57;40.39;101562.22;5084873;28;20086;-82
2021/04/24 00:02:47;;;;;;;11.90;5.13;;;;;;;11.64;40.32;101545.19;5074223;28;20023;-82
2021/04/24 00:05:17;;;;;;;11.23;5.22;;;;;;;11.44;40.43;101562.03;5073139;28;20089;-83
2021/04/24 00:07:43;;;;;;;9.63;4.57;;;;;;;11.36;40.44;101551.09;5072942;28;20031;-83
2021/04/24 00:10:10;;;;;;;7.25;4.20;;;;;;;11.42;40.52;101556.84;5072929;28;20016;-83
2021/04/24 00:12:35;;;;;;;8.98;5.00;;;;;;;11.56;40.40;101550.03;5072942;28;20040;-83
2021/04/24 00:15:02;;;;;;;11.07;4.90;;;;;;;11.57;40.10;101560.47;5081492;28;20028;-83
2021/04/24 00:17:28;;;;;;;7.78;4.13;;;;;;;11.32;40.86;101556.50;5092790;28;20063;-83
2021/04/24 00:19:53;;;;;;;10.25;4.45;;;;;;;11.31;40.92;101548.69;5092784;28;20098;-83
2021/04/24 00:22:18;;;;;;;11.95;4.95;;;;;;;11.55;40.59;101556.19;5091791;28;20061;-83
2021/04/24 00:24:44;;;;;;;14.55;4.20;;;;;;;11.20;41.30;101545.78;5093219;28;20023;-83
2021/04/24 00:27:09;;;;;;;9.15;4.57;;;;;;;11.46;40.70;101550.50;5092742;28;20028;-82
2021/04/24 00:29:34;;;;;;;12.70;5.05;;;;;;;11.41;41.02;101552.50;5084231;28;20036;-83
2021/04/24 00:32:01;;;;;;;12.75;4.35;;;;;;;11.22;41.43;101550.03;5072515;28;20025;-83
2021/04/24 00:34:26;;;;;;;9.57;4.32;;;;;;;11.31;41.05;101544.28;5072320;28;20082;-83
2021/04/24 00:36:51;;;;;;;7.68;4.30;;;;;;;11.33;41.04;101533.66;5073053;28;20020;-83
2021/04/24 00:39:17;;;;;;;11.00;4.50;;;;;;;11.29;41.44;101534.75;5072261;28;20471;-83
2021/04/24 00:41:42;;;;;;;9.50;5.18;;;;;;;11.37;41.51;101537.84;5072218;28;20249;-83
2021/04/24 00:44:08;;;;;;;9.98;5.15;;;;;;;11.50;41.21;101536.25;5078894;28;20031;-83
2021/04/24 00:46:33;;;;;;;8.05;3.92;;;;;;;11.54;40.91;101533.47;5092821;28;20131;-83
2021/04/24 00:48:58;;;;;;;9.60;4.13;;;;;;;11.22;42.13;101538.66;5092545;28;20024;-83
2021/04/24 00:51:24;;;;;;;17.30;4.95;;;;;;;11.29;41.58;101526.88;5091427;28;20113;-83
2021/04/24 00:53:49;;;;;;;11.23;4.38;;;;;;;11.24;42.12;101539.44;5092342;28;20381;-83
2021/04/24 00:56:15;;;;;;;5.93;3.35;;;;;;;11.29;42.34;101537.41;5092399;28;20028;-83
2021/04/24 00:58:40;;;;;;;8.13;4.65;;;;;;;11.22;42.22;101531.63;5087255;28;20382;-83
2021/04/24 01:01:06;;;;;;;10.57;4.30;;;;;;;11.23;42.50;101533.31;5072711;28;20031;-83
2021/04/24 01:03:32;;;;;;;14.38;5.03;;;;;;;10.93;43.19;101527.88;5072040;28;20020;-82
2021/04/24 01:05:57;;;;;;;9.95;3.95;;;;;;;11.18;42.23;101531.88;5070943;28;20036;-82
2021/04/24 01:08:24;;;;;;;11.55;4.57;;;;;;;11.01;43.00;101525.69;5072084;28;20035;-82
2021/04/24 01:10:49;;;;;;;12.02;4.30;;;;;;;11.16;42.85;101528.44;5072092;28;20528;-82
2021/04/24 01:13:16;;;;;;;10.88;4.30;;;;;;;10.99;43.14;101524.94;5075187;28;20028;-83
2021/04/24 01:15:43;;;;;;;13.07;4.68;;;;;;;10.80;43.66;101524.19;5092217;28;20055;-82
2021/04/24 01:18:09;;;;;;;11.02;4.72;;;;;;;11.17;42.95;101524.91;5092318;28;20036;-83
2021/04/24 01:20:35;;;;;;;9.48;4.63;;;;;;;11.03;43.39;101523.84;5090823;28;20032;-83
2021/04/24 01:23:01;;;;;;;8.45;4.00;;;;;;;10.98;43.20;101527.63;5107648;28;20489;-83
2021/04/24 01:25:27;;;;;;;11.07;4.72;;;;;;;10.90;43.48;101517.53;5091761;28;20111;-83
2021/04/24 01:27:58;;;;;;;9.23;3.38;;;;;;;11.04;43.51;101514.19;5087961;28;20557;-83
2021/04/24 01:30:28;;;;;;;8.50;4.10;;;;;;;11.04;43.23;101520.28;5071793;28;20082;-83
2021/04/24 01:32:55;;;;;;;9.80;4.03;;;;;;;10.95;42.98;101514.66;5071910;28;20327;-83
2021/04/24 01:35:23;;;;;;;7.63;3.22;;;;;;;10.84;43.24;101512.56;5070945;28;20537;-83
2021/04/24 01:37:49;;;;;;;9.73;4.20;;;;;;;10.83;43.62;101509.09;5071848;28;20029;-82
2021/04/24 01:40:17;;;;;;;7.22;3.60;;;;;;;10.82;43.21;101502.16;5071871;28;20490;-82
2021/04/24 01:42:43;;;;;;;9.65;4.05;;;;;;;10.61;43.48;101506.72;5074814;28;20032;-82
2021/04/24 01:45:13;;;;;;;10.15;3.53;;;;;;;10.89;43.36;101506.16;5091871;28;20028;-82
2021/04/24 01:47:41;;;;;;;10.73;3.78;;;;;;;10.79;43.28;101511.97;5090658;28;20095;-82
2021/04/24 01:50:16;;;;;;;6.07;3.10;;;;;;;10.67;43.92;101511.66;5091966;28;20028;-82
2021/04/24 01:52:42;;;;;;;6.65;3.83;;;;;;;10.73;43.56;101521.03;5092126;28;20020;-82
2021/04/24 01:55:16;;;;;;;6.53;3.38;;;;;;;10.78;43.28;101523.41;5091961;28;20058;-83
2021/04/24 01:57:46;;;;;;;6.70;3.70;;;;;;;10.59;43.41;101513.00;5085154;28;20024;-82
2021/04/24 02:00:17;;;;;;;9.85;3.40;;;;;;;10.82;42.79;101514.44;5071785;28;20024;-82
2021/04/24 02:02:43;;;;;;;7.93;3.85;;;;;;;10.68;43.26;101509.88;5071717;28;20391;-82
2021/04/24 02:05:12;;;;;;;6.82;2.90;;;;;;;10.64;43.41;101518.84;5071641;28;20020;-82
2021/04/24 02:07:37;;;;;;;5.57;2.88;;;;;;;10.71;43.26;101515.00;5071308;28;20069;-83
2021/04/24 02:10:09;;;;;;;4.47;2.65;;;;;;;10.72;42.71;101508.81;5071483;28;20253;-83
2021/04/24 02:12:36;;;;;;;11.48;3.25;;;;;;;10.50;43.93;101511.66;5070875;28;20071;-82
2021/04/24 02:15:04;;;;;;;5.90;3.08;;;;;;;10.49;43.36;101508.19;5071398;28;20375;-83
2021/04/24 02:17:29;;;;;;;5.90;2.33;;;;;;;10.50;42.77;101511.66;5071136;28;20474;-83
2021/04/24 02:19:54;;;;;;;5.47;3.33;;;;;;;10.66;42.70;101515.25;5070099;28;20036;-83
2021/04/24 02:22:21;;;;;;;7.80;3.35;;;;;;;10.83;42.54;101534.53;5071301;28;20063;-83
2021/04/24 02:24:52;;;;;;;6.97;2.65;;;;;;;10.63;42.93;101530.31;5071218;28;20036;-83
2021/04/24 02:27:18;;;;;;;5.05;3.10;;;;;;;10.83;42.28;101518.78;5075684;28;20028;-83
2021/04/24 02:29:45;;;;;;;9.93;3.50;;;;;;;10.81;42.33;101526.72;5091447;28;20084;-83
2021/04/24 02:32:12;;;;;;;5.70;2.85;;;;;;;10.77;42.71;101522.56;5091624;28;20025;-83
2021/04/24 02:34:43;;;;;;;6.57;3.05;;;;;;;10.67;43.08;101521.34;5091371;28;20036;-82
2021/04/24 02:37:10;;;;;;;6.18;2.67;;;;;;;10.60;42.72;101518.16;5092418;28;20028;-83
2021/04/24 02:39:38;;;;;;;7.03;3.00;;;;;;;10.67;42.63;101523.97;5096305;28;20390;-80
2021/04/24 02:42:06;;;;;;;6.95;3.67;;;;;;;10.41;42.85;101525.28;5094431;28;20020;-83
2021/04/24 02:44:32;;;;;;;9.13;2.70;;;;;;;10.64;42.57;101527.59;5094887;28;20024;-83
2021/04/24 02:46:59;;;;;;;4.75;2.92;;;;;;;10.55;42.79;101527.22;5093057;28;20031;-83
2021/04/24 02:49:24;;;;;;;8.70;2.70;;;;;;;10.49;42.53;101520.47;5094953;28;20020;-81
2021/04/24 02:51:51;;;;;;;8.77;4.07;;;;;;;10.46;43.06;101529.34;5094908;28;20028;-81
2021/04/24 02:54:17;;;;;;;6.22;3.00;;;;;;;10.22;43.47;101520.88;5094510;28;20101;-82
2021/04/24 02:56:42;;;;;;;5.63;2.85;;;;;;;10.54;42.65;101525.50;5094909;28;20024;-82
2021/04/24 02:59:07;;;;;;;7.47;2.83;;;;;;;10.48;43.01;101521.41;5094719;28;20020;-82
2021/04/24 03:01:33;;;;;;;4.80;3.08;;;;;;;10.35;43.68;101526.41;5077679;28;20072;-82
2021/04/24 03:03:58;;;;;;;7.65;3.22;;;;;;;10.53;43.37;101532.53;5094907;28;20444;-82
2021/04/24 03:06:24;;;;;;;7.13;3.00;;;;;;;10.30;43.58;101525.78;5094252;28;20038;-83
2021/04/24 03:08:49;;;;;;;11.32;3.33;;;;;;;10.29;43.58;101532.78;5094343;28;20020;-82
2021/04/24 03:11:15;;;;;;;10.50;3.50;;;;;;;10.12;43.99;101524.88;5094574;28;20024;-82
2021/04/24 03:13:40;;;;;;;7.80;3.15;;;;;;;10.13;44.36;101526.59;5094453;28;20058;-82
2021/04/24 03:16:06;;;;;;;9.93;3.33;;;;;;;10.03;44.44;101526.19;5092939;28;20148;-82
2021/04/24 03:18:31;;;;;;;9.02;3.60;;;;;;;10.03;44.30;101530.53;5075271;28;20025;-82
2021/04/24 03:20:56;;;;;;;5.75;2.90;;;;;;;10.08;44.10;101523.31;5074109;28;20056;-82
2021/04/24 03:23:22;;;;;;;7.28;3.42;;;;;;;10.07;44.63;101534.72;5074103;28;20119;-82
2021/04/24 03:25:47;;;;;;;8.48;3.40;;;;;;;10.03;44.32;101527.94;5073937;28;20502;-82
2021/04/24 03:28:12;;;;;;;5.43;3.25;;;;;;;10.00;44.69;101530.72;5074099;28;20172;-82
2021/04/24 03:30:38;;;;;;;8.95;3.72;;;;;;;9.80;45.27;101529.03;5073799;28;20115;-82
2021/04/24 03:33:03;;;;;;;9.07;3.33;;;;;;;9.86;44.84;101526.97;5073742;28;20103;-82
2021/04/24 03:35:29;;;;;;;7.78;3.20;;;;;;;9.64;45.40;101529.72;5074176;28;20111;-82
2021/04/24 03:37:54;;;;;;;6.32;3.30;;;;;;;9.76;45.25;101532.72;5072381;28;20032;-82
2021/04/24 03:40:20;;;;;;;7.43;3.33;;;;;;;9.71;45.42;101530.28;5073926;28;20077;-82
2021/04/24 03:42:45;;;;;;;9.80;3.85;;;;;;;9.39;46.89;101530.00;5072528;28;20028;-82
2021/04/24 03:45:18;;;;;;;11.00;3.40;;;;;;;9.44;46.62;101520.16;5076992;28;20177;-81
2021/04/24 03:47:48;;;;;;;8.70;3.65;;;;;;;9.78;46.54;101525.63;5097919;28;20035;-81
2021/04/24 03:50:15;;;;;;;7.95;3.28;;;;;;;9.50;46.63;101519.03;5101320;28;20070;-82
2021/04/24 03:52:40;;;;;;;6.75;3.55;;;;;;;9.62;46.30;101530.75;5093944;28;20073;-82
2021/04/24 03:55:06;;;;;;;6.70;3.95;;;;;;;9.57;46.23;101522.22;5093792;28;20024;-83
2021/04/24 03:57:32;;;;;;;9.35;3.78;;;;;;;9.46;47.20;101526.19;5093742;28;20429;-83
2021/04/24 03:59:58;;;;;;;7.25;4.00;;;;;;;9.38;47.77;101528.31;5093355;28;20443;-83
2021/04/24 04:02:24;;;;;;;14.82;5.53;;;;;;;9.36;47.83;101529.28;5076478;28;20494;-82
2021/04/24 04:04:49;;;;;;;10.70;4.55;;;;;;;9.35;48.06;101528.44;5073639;28;20030;-82
2021/04/24 04:07:14;;;;;;;9.60;4.07;;;;;;;9.30;48.50;101533.88;5073180;28;20012;-82
2021/04/24 04:09:40;;;;;;;12.70;5.45;;;;;;;9.40;48.29;101523.84;5072968;28;20029;-82
2021/04/24 04:12:05;;;;;;;8.82;4.45;;;;;;;9.26;49.08;101534.94;5073168;28;20016;-82
2021/04/24 04:14:30;;;;;;;9.73;4.65;;;;;;;9.37;48.35;101537.06;5072886;28;20479;-83
2021/04/24 04:16:56;;;;;;;8.35;4.57;;;;;;;9.35;49.13;101541.53;5084309;28;20035;-83
2021/04/24 04:19:21;;;;;;;7.22;4.38;;;;;;;9.42;48.13;101544.72;5073001;28;20036;-83
2021/04/24 04:21:46;;;;;;;11.25;4.90;;;;;;;9.37;48.91;101542.31;5073146;28;20320;-83
2021/04/24 04:24:12;;;;;;;11.07;4.70;;;;;;;9.14;49.38;101543.31;5072983;28;20028;-83
2021/04/24 04:26:37;;;;;;;11.25;5.07;;;;;;;9.24;49.21;101544.66;5072726;28;20029;-82
2021/04/24 04:29:03;;;;;;;10.20;5.50;;;;;;;9.25;49.76;101535.00;5072723;28;20070;-82
2021/04/24 04:31:28;;;;;;;12.27;5.03;;;;;;;9.34;49.15;101542.47;5081383;28;20107;-83
2021/04/24 04:33:54;;;;;;;13.02;5.35;;;;;;;9.25;50.21;101553.34;5092732;28;20031;-83
2021/04/24 04:36:19;;;;;;;13.25;4.78;;;;;;;9.20;50.26;101550.94;5093663;28;20032;-83
2021/04/24 04:38:44;;;;;;;11.63;5.38;;;;;;;9.13;50.47;101555.59;5091851;28;20054;-83
2021/04/24 04:41:10;;;;;;;14.98;7.85;;;;;;;8.98;51.61;101550.16;5092832;28;20032;-83
2021/04/24 04:43:35;;;;;;;8.57;5.35;;;;;;;9.12;50.99;101547.78;5092883;28;20028;-83
2021/04/24 04:46:01;;;;;;;9.65;5.78;;;;;;;9.12;50.97;101543.41;5085558;28;20024;-83
2021/04/24 04:48:26;;;;;;;13.18;5.63;;;;;;;9.20;50.81;101550.06;5072438;28;20063;-83
2021/04/24 04:50:51;;;;;;;14.07;5.78;;;;;;;9.19;51.29;101548.38;5072439;28;20086;-83
2021/04/24 04:53:17;;;;;;;11.07;5.78;;;;;;;9.26;50.40;101549.81;5072440;28;20028;-83
2021/04/24 04:55:42;;;;;;;9.65;5.57;;;;;;;9.17;50.82;101545.81;5072110;28;20039;-83
2021/04/24 04:58:08;;;;;;;11.15;5.88;;;;;;;9.11;51.70;101546.94;5072283;28;20355;-83
2021/04/24 05:00:33;;;;;;;11.30;5.80;;;;;;;9.11;51.45;101546.94;5075137;28;20202;-83
2021/04/24 05:02:59;;;;;;;13.60;5.70;;;;;;;9.06;51.81;101533.22;5092254;28;20489;-83
2021/04/24 05:05:25;;;;;;;15.68;5.32;;;;;;;8.86;51.63;101510.47;5092532;28;20028;-91
2021/04/24 05:07:50;;;;;;;12.63;6.63;;;;;;;8.88;52.11;101539.22;5075987;28;20028;-90
2021/04/24 05:10:17;;;;;;;10.88;6.30;;;;;;;9.04;51.48;101535.00;5083368;28;20036;-90
2021/04/24 05:12:43;;;;;;;13.02;6.05;;;;;;;9.20;51.50;101523.88;5066255;28;20291;-91
2021/04/24 05:15:10;;;;;;;13.98;5.88;;;;;;;9.13;50.64;101492.69;5072247;28;20028;-90
2021/04/24 05:17:35;;;;;;;11.07;6.22;;;;;;;9.13;50.40;101497.94;5071154;28;20127;-92
2021/04/24 05:20:01;;;;;;;12.65;5.82;;;;;;;9.10;50.96;101503.34;5072715;28;20544;-92
2021/04/24 05:22:26;;;;;;;20.40;5.65;;;;;;;9.35;50.99;101538.91;5070877;28;20032;-91
2021/04/24 05:24:52;;;;;;;17.48;5.82;;;;;;;8.98;51.72;101514.31;5071622;28;20031;-92
2021/04/24 05:27:18;;;;;;;9.63;5.50;;;;;;;9.26;50.75;101513.97;5072256;28;20043;-93
2021/04/24 05:29:43;;;;;;;12.60;5.95;;;;;;;9.29;50.97;101520.84;5088033;28;20493;-92
2021/04/24 05:32:09;;;;;;;14.35;5.43;;;;;;;9.39;51.21;101550.97;5092768;28;20059;-92
2021/04/24 05:34:34;;;;;;;11.30;5.10;;;;;;;9.31;50.69;101539.97;5091285;28;20382;-93
2021/04/24 05:37:00;;;;;;;12.90;6.40;;;;;;;9.38;51.42;101549.28;5084991;28;20028;-92
2021/04/24 05:39:25;;;;;;;13.68;5.63;;;;;;;9.25;51.01;101538.47;5071226;28;20066;-92
2021/04/24 05:41:51;;;;;;;10.57;5.20;;;;;;;9.21;51.48;101541.31;5072050;28;20067;-91
2021/04/24 05:44:16;;;;;;;13.07;5.75;;;;;;;9.19;52.02;101544.00;5081901;28;20489;-92
2021/04/24 05:46:42;;;;;;;12.32;5.85;;;;;;;9.23;51.56;101536.84;5071284;28;20052;-92
2021/04/24 05:49:07;;;;;;;12.70;7.03;;;;;;;9.21;51.86;101543.94;5071360;28;20035;-92
2021/04/24 05:51:33;;;;;;;13.45;5.40;;;;;;;9.18;51.38;101544.03;5071464;28;20451;-92
2021/04/24 05:53:58;;;;;;;13.93;6.75;;;;;;;9.45;51.38;101561.16;5072008;28;20029;-93
2021/04/24 05:56:24;;;;;;;12.55;5.68;;;;;;;9.16;51.43;101519.69;5072861;28;20024;-92
2021/04/24 05:58:50;;;;;;;13.30;5.60;;;;;;;9.37;50.66;101521.34;5074473;28;20495;-92
2021/04/24 06:01:16;;;;;;;12.82;5.60;;;;;;;9.67;50.61;101545.31;5072647;28;20021;-92
2021/04/24 06:03:42;;;;;;;13.30;5.10;;;;;;;9.46;50.98;101531.44;5073353;28;20120;-92
2021/04/24 06:06:07;;;;;;;10.40;5.53;;;;;;;9.55;50.70;101543.25;5071534;28;20071;-91
2021/04/24 06:08:33;;;;;;;11.15;5.82;;;;;;;9.69;50.67;101564.44;5071393;28;20511;-92
2021/04/24 06:10:58;;;;;;;10.75;5.13;;;;;;;9.76;49.72;101525.69;5072265;28;20027;-93
2021/04/24 06:13:24;;;;;;;10.57;5.15;;;;;;;9.53;49.97;101537.22;5082541;28;20112;-93
2021/04/24 06:15:50;;;;;;;11.82;4.78;;;;;;;9.63;50.49;101524.56;5094967;28;20205;-92
2021/04/24 06:18:17;;;;;;;10.88;5.05;;;;;;;10.05;50.24;101574.19;5077430;28;20158;-92
2021/04/24 06:20:44;;;;;;;11.38;5.38;;;;;;;9.95;49.39;101544.03;5074229;28;20541;-92
2021/04/24 06:23:10;;;;;;;10.30;5.38;;;;;;;10.10;49.60;101587.06;5073529;28;20029;-91
2021/04/24 06:25:35;;;;;;;14.35;5.95;;;;;;;10.04;49.44;101579.50;5074618;28;20071;-94
2021/04/24 06:28:01;;;;;;;6.93;5.10;;;;;;;10.18;49.08;101571.81;5076218;28;20406;-92
2021/04/24 06:30:27;;;;;;;10.68;5.35;;;;;;;10.41;48.43;101583.03;5091386;28;20024;-85
2021/04/24 06:32:54;;;;;;;9.15;5.43;;;;;;;10.41;48.58;101594.38;5054559;28;20060;-84
2021/04/24 06:35:22;;;;;;;13.73;5.60;;;;;;;10.31;48.82;101570.34;5055034;28;20043;-84
2021/04/24 06:37:48;;;;;;;8.45;4.90;;;;;;;11.57;46.91;101607.81;5084548;28;20099;-91
2021/04/24 06:40:16;;;;;;;15.35;4.68;;;;;;;12.73;43.07;101604.09;5074478;28;20490;-87
2021/04/24 06:42:41;;;;;;;10.30;4.93;;;;;;;14.24;40.63;101586.06;5073981;28;20074;-90
2021/04/24 06:45:08;;;;;;;8.15;5.28;;;;;;;14.99;38.51;101587.38;5073403;28;20044;-93
2021/04/24 06:47:34;;;;;;;13.63;4.82;;;;;;;15.72;36.57;101576.13;5076636;28;20375;-93
2021/04/24 06:50:00;;;;;;;11.23;4.72;;;;;;;16.94;34.49;101581.38;5062675;28;20028;-89
2021/04/24 06:52:26;;;;;;;8.20;4.35;;;;;;;17.78;33.04;101597.84;5060869;28;20024;-89
2021/04/24 06:54:51;;;;;;;8.20;4.15;;;;;;;18.57;31.98;101605.66;5054594;28;20029;-89
2021/04/24 06:57:17;;;;;;;11.32;6.13;;;;;;;19.37;30.84;101614.94;5063437;28;20351;-88
2021/04/24 06:59:43;;;;;;;10.35;4.60;;;;;;;19.81;30.08;101620.88;5074035;28;20031;-87
2021/04/24 07:02:12;;;;;;;9.48;4.75;;;;;;;19.67;29.54;101615.03;5072824;28;20044;-87
2021/04/24 07:04:39;;;;;;;12.45;4.68;;;;;;;20.10;28.75;101612.16;5056946;28;20471;-86
2021/04/24 07:07:05;;;;;;;12.25;4.43;;;;;;;20.59;28.12;101613.03;5060381;28;20205;-86
2021/04/24 07:09:31;;;;;;;9.57;4.45;;;;;;;20.20;28.86;101607.66;5058343;28;20021;-87
2021/04/24 07:11:56;;;;;;;10.23;4.40;;;;;;;20.71;27.84;101605.75;5057817;28;20031;-86
2021/04/24 07:14:22;;;;;;;11.77;4.60;;;;;;;20.56;28.09;101602.63;5061413;28;20035;-87
2021/04/24 07:16:47;;;;;;;7.63;4.20;;;;;;;21.28;27.34;101624.50;5071721;28;20039;-88
2021/04/24 07:19:13;;;;;;;12.10;4.15;;;;;;;21.67;26.75;101624.38;5076889;28;20473;-87
2021/04/24 07:21:39;;;;;;;9.32;4.65;;;;;;;21.19;27.21;101623.53;5075879;28;20036;-90
2021/04/24 07:24:05;;;;;;;9.00;4.20;;;;;;;21.47;27.24;101615.63;5074514;28;20040;-89
2021/04/24 07:26:31;;;;;;;8.68;4.68;;;;;;;21.81;26.94;101632.91;5070192;28;20111;-91
2021/04/24 07:28:56;;;;;;;9.50;4.78;;;;;;;21.69;27.35;101614.38;5073125;28;20063;-88
2021/04/24 07:31:21;;;;;;;12.05;5.05;;;;;;;21.63;26.92;101635.53;5071492;28;20150;-88
2021/04/24 07:33:47;;;;;;;9.63;4.43;;;;;;;22.00;26.57;101624.81;5071899;28;20286;-88
2021/04/24 07:36:12;;;;;;;8.25;4.20;;;;;;;22.28;26.45;101630.16;5068784;28;20078;-89
2021/04/24 07:38:38;;;;;;;9.68;4.22;;;;;;;22.07;26.75;101631.22;5062127;28;20021;-88
2021/04/24 07:41:04;;;;;;;9.40;4.28;;;;;;;22.39;26.15;101629.91;5065021;28;20037;-93
2021/04/24 07:43:29;;;;;;;14.07;5.50;;;;;;;22.45;26.31;101604.38;5057766;28;20029;-92
2021/04/24 07:45:55;;;;;;;10.48;4.82;;;;;;;22.60;25.71;101615.41;5059120;28;20332;-91
2021/04/24 07:48:20;;;;;;;16.92;5.32;;;;;;;22.13;26.39;101622.59;5076712;28;20039;-92
2021/04/24 07:50:47;;;;;;;12.40;5.90;;;;;;;22.52;26.22;101622.34;5078334;28;20033;-92
2021/04/24 07:53:13;;;;;;;14.05;4.97;;;;;;;22.51;26.26;101628.72;5063832;28;20037;-90
2021/04/24 07:55:39;;;;;;;13.95;5.55;;;;;;;22.30;26.55;101620.97;5055226;28;20037;-91
2021/04/24 07:58:04;;;;;;;9.60;4.90;;;;;;;22.77;26.16;101622.59;5069904;28;20437;-90
2021/04/24 08:00:31;;;;;;;10.15;4.85;;;;;;;23.88;25.06;101616.59;5071791;28;20028;-91
2021/04/24 08:02:57;;;;;;;10.90;4.93;;;;;;;23.12;25.10;101597.59;5063931;28;20024;-93
2021/04/24 08:05:23;;;;;;;10.25;4.70;;;;;;;23.21;25.22;101595.81;5071725;28;20082;-93
2021/04/24 08:07:48;;;;;;;9.82;5.38;;;;;;;23.16;25.30;101580.22;5061012;28;20027;-91
2021/04/24 08:10:14;;;;;;;9.95;4.90;;;;;;;23.05;25.51;101601.06;5064473;28;20336;-90
2021/04/24 08:12:40;;;;;;;9.00;4.97;;;;;;;22.25;26.91;101601.84;5060676;28;20475;-91
2021/04/24 08:15:08;;;;;;;12.68;4.38;;;;;;;22.92;25.89;101588.03;5073172;28;20491;-90
2021/04/24 08:17:38;;;;;;;11.80;5.35;;;;;;;22.69;26.16;101583.19;5065010;28;20082;-92
2021/04/24 08:20:05;;;;;;;13.13;5.47;;;;;;;22.74;25.54;101596.13;5062110;28;20029;-92
2021/04/24 08:22:31;;;;;;;5.93;4.20;;;;;;;23.44;24.73;101581.84;5074832;28;20395;-92
2021/04/24 08:24:56;;;;;;;11.68;5.05;;;;;;;24.50;23.80;101597.44;5073503;28;20036;-92
2021/04/24 08:27:29;;;;;;;12.25;5.25;;;;;;;22.92;24.78;101599.59;5071587;28;20064;-91
2021/04/24 08:29:54;;;;;;;13.20;5.10;;;;;;;23.14;24.69;101592.06;5069765;28;20066;-93
2021/04/24 08:32:20;;;;;;;8.85;4.32;;;;;;;23.61;24.05;101583.59;5075504;28;20028;-93
2021/04/24 08:34:45;;;;;;;10.55;4.50;;;;;;;24.54;23.90;101564.72;5066200;28;20501;-93
2021/04/24 08:37:14;;;;;;;6.55;4.38;;;;;;;24.06;23.42;101566.34;5068529;28;20020;-95
2021/04/24 08:39:45;;;;;;;8.23;4.65;;;;;;;24.38;22.81;101583.50;5073696;28;20128;-94
2021/04/24 08:42:14;;;;;;;9.20;5.07;;;;;;;25.02;22.72;101561.31;5075168;28;20058;-95
2021/04/24 08:45:18;;;;;;;11.80;4.45;;;;;;;25.39;21.90;101567.97;5059445;28;20384;-95
2021/04/24 08:47:48;;;;;;;14.70;5.40;;;;;;;25.64;21.59;101583.00;5063590;28;20028;-92
2021/04/24 08:51:03;;;;;;;8.70;4.55;;;;;;;26.09;21.52;101568.00;5060614;28;20032;-93
2021/04/24 08:53:29;;;;;;;9.10;4.55;;;;;;;25.29;21.61;101560.94;5074733;28;20514;-92
2021/04/24 08:55:54;;;;;;;6.90;4.30;;;;;;;25.15;21.73;101572.38;5073259;28;20028;-93
2021/04/24 08:58:20;;;;;;;8.52;4.70;;;;;;;25.52;22.08;101568.28;5066185;28;20029;-92
2021/04/24 09:00:53;;;;;;;17.35;4.57;;;;;;;26.07;21.01;101567.34;5066138;28;20028;-94
2021/04/24 09:03:25;;;;;;;9.93;4.80;;;;;;;26.14;20.67;101551.31;5066922;28;20115;-95
2021/04/24 09:05:54;;;;;;;9.25;4.80;;;;;;;25.78;21.30;101573.34;5074833;28;20044;-94
2021/04/24 09:08:25;;;;;;;8.27;4.70;;;;;;;26.56;20.39;101573.38;5072748;28;20025;-94
2021/04/24 09:10:58;;;;;;;9.52;5.72;;;;;;;26.79;20.37;101601.13;5076877;28;20016;-93
2021/04/24 09:13:25;;;;;;;13.02;5.10;;;;;;;26.90;20.54;101581.84;5074996;28;20017;-94
2021/04/24 09:15:52;;;;;;;8.60;4.65;;;;;;;27.78;19.19;101609.00;5084402;28;20032;-93
2021/04/24 09:18:18;;;;;;;13.13;5.15;;;;;;;27.31;20.07;101577.88;5085355;28;20064;-93
2021/04/24 09:20:52;;;;;;;7.40;4.45;;;;;;;27.33;19.29;101588.50;5066884;28;20021;-93
2021/04/24 09:23:22;;;;;;;10.40;5.00;;;;;;;27.66;19.50;101605.13;5059751;28;20052;-93
2021/04/24 09:26:01;;;;;;;11.10;4.80;;;;;;;27.84;19.67;101596.63;5062762;28;20041;-93
2021/04/24 09:28:32;;;;;;;10.07;4.60;;;;;;;27.77;19.37;101591.16;5068245;28;20033;-94
2021/04/24 09:31:10;;;;;;;5.95;4.32;;;;;;;28.22;18.47;101588.34;5073052;28;20039;-94
2021/04/24 09:33:36;;;;;;;9.10;4.15;;;;;;;27.60;18.92;101592.38;5072590;28;20032;-93
2021/04/24 09:36:03;;;;;;;8.95;4.65;;;;;;;26.03;20.32;101589.41;5063474;28;20068;-92
2021/04/24 09:38:31;;;;;;;9.15;4.60;;;;;;;27.18;19.07;101593.88;5071253;28;20375;-92
2021/04/24 09:41:13;;;;;;;11.73;4.63;;;;;;;28.50;18.54;101585.72;5080045;28;20064;-92
2021/04/24 09:44:03;;;;;;;8.13;4.13;;;;;;;27.92;18.81;101580.34;5077338;28;20738;-93
2021/04/24 09:46:57;;;;;;;7.78;4.25;;;;;;;27.34;19.06;101595.56;5076301;28;20036;-93
2021/04/24 09:49:29;;;;;;;7.60;3.70;;;;;;;28.08;18.28;101595.47;5063187;28;20051;-93
2021/04/24 09:52:02;;;;;;;7.93;4.13;;;;;;;27.24;18.96;101585.91;5076435;28;20119;-92
2021/04/24 09:54:33;;;;;;;9.45;3.80;;;;;;;27.97;18.42;101596.00;5075443;28;20364;-92
2021/04/24 09:57:00;;;;;;;;;;;;;;;28.29;18.14;101600.06;5071148;28;20056;-94
2021/04/24 09:59:25;;;;;;;8.52;4.00;;;;;;;28.46;17.77;101585.28;5081391;28;19939;-93
2021/04/24 10:01:59;;;;;;;6.75;3.50;;;;;;;28.94;17.23;101594.63;5073800;28;20092;-95
2021/04/24 10:04:25;;;;;;;5.82;3.20;;;;;;;28.97;17.55;101596.91;5076181;28;20035;-95
2021/04/24 10:06:54;;;;;;;7.63;3.90;;;;;;;29.39;17.12;101581.63;5074887;28;20028;-93
2021/04/24 10:09:32;;;;;;;9.95;4.57;;;;;;;29.34;17.12;101581.38;5077248;28;20059;-95
2021/04/24 10:12:00;;;;;;;5.50;3.80;;;;;;;29.30;17.11;101582.81;5079540;28;20028;-95
2021/04/24 10:14:44;;;;;;;6.90;4.05;;;;;;;28.84;17.66;101584.16;5074148;28;20036;-93
2021/04/24 10:17:20;;;;;;;5.32;3.60;;;;;;;27.55;18.07;101590.28;5099464;28;20478;-94
2021/04/24 10:19:47;;;;;;;10.35;4.50;;;;;;;26.90;19.00;101594.50;5080628;28;20094;-93
2021/04/24 10:22:15;;;;;;;9.57;4.03;;;;;;;27.77;18.06;101601.97;5068570;28;20020;-94
2021/04/24 10:24:41;;;;;;;8.45;4.30;;;;;;;26.94;18.72;101578.78;5078515;28;20033;-94
2021/04/24 10:27:08;;;;;;;7.85;4.78;;;;;;;27.10;18.85;101592.09;5084584;28;20485;-93
2021/04/24 10:29:34;;;;;;;7.40;3.88;;;;;;;27.23;18.88;101596.84;5092486;28;20016;-94
2021/04/24 10:31:59;;;;;;;11.80;4.13;;;;;;;26.99;18.66;101579.88;5094598;28;20025;-93
2021/04/24 10:34:26;;;;;;;7.78;4.57;;;;;;;27.61;18.73;101586.81;5080749;28;20078;-93
2021/04/24 10:36:52;;;;;;;7.97;3.88;;;;;;;27.91;18.87;101589.47;5070148;28;20060;-94
2021/04/24 10:39:26;;;;;;;8.05;3.92;;;;;;;27.86;18.21;101589.19;5089293;28;20024;-93
2021/04/24 10:41:54;;;;;;;8.40;4.07;;;;;;;28.35;17.73;101593.88;5081256;28;20263;-93
2021/04/24 10:44:22;;;;;;;4.53;3.67;;;;;;;26.67;18.95;101570.28;5081207;28;20094;-92
2021/04/24 10:46:57;;;;;;;5.80;3.50;;;;;;;27.17;18.95;101574.13;5086016;28;20032;-93
2021/04/24 10:49:31;;;;;;;11.90;4.40;;;;;;;27.47;18.41;101571.50;5083607;28;20127;-95
2021/04/24 10:52:25;;;;;;;5.00;3.50;;;;;;;28.01;18.07;101560.31;5076831;28;20059;-94
2021/04/24 10:55:12;;;;;;;8.75;4.68;;;;;;;27.65;18.23;101558.44;5067515;28;20032;-92
2021/04/24 10:57:38;;;;;;;7.05;4.03;;;;;;;27.19;18.80;101561.34;5081100;28;20517;-93
2021/04/24 11:00:32;;;;;;;5.60;3.20;;;;;;;28.09;17.91;101557.47;5072968;28;20032;-93
2021/04/24 11:02:59;;;;;;;9.25;3.78;;;;;;;27.58;18.30;101554.81;5047276;28;20103;-92
2021/04/24 11:05:45;;;;;;;9.45;5.32;;;;;;;27.37;18.00;101549.34;5055127;28;20029;-94
2021/04/24 11:08:20;;;;;;;6.65;3.75;;;;;;;27.73;18.46;101551.25;5054016;28;20047;-92
2021/04/24 11:10:56;;;;;;;7.55;3.70;;;;;;;28.43;17.11;101542.41;5076291;28;20109;-94
2021/04/24 11:13:23;;;;;;;10.57;4.75;;;;;;;27.92;18.36;101534.47;5070310;28;20410;-92
2021/04/24 11:15:49;;;;;;;4.72;3.05;;;;;;;28.70;17.87;101552.66;5072344;28;20382;-93
2021/04/24 11:18:15;;;;;;;8.07;3.60;;;;;;;28.13;17.75;101549.84;5084911;28;20482;-95
2021/04/24 11:21:04;;;;;;;13.65;4.40;;;;;;;27.64;18.09;101537.84;5085478;28;20032;-95
2021/04/24 11:23:30;;;;;;;8.35;3.80;;;;;;;27.68;17.80;101547.25;5074687;28;20043;-93
2021/04/24 11:26:06;;;;;;;13.38;3.85;;;;;;;27.84;17.77;101548.91;5087226;28;20036;-93